sensor_id;sensor_type;location;lat;lon;timestamp;pressure;altitude;pressure_sealevel;temperature;humidity
67434;BME280;54305;47.950;6.572;2023-04-19T00:01:43;94556.53;;;7.39;100.00
67434;BME280;54305;47.950;6.572;2023-04-19T00:04:08;94550.66;;;7.37;100.00
67434;BME280;54305;47.950;6.572;2023-04-19T00:06:33;94556.41;;;7.40;100.00
67434;BME280;54305;47.950;6.572;2023-04-19T00:08:59;94553.22;;;7.37;100.00
67434;BME280;54305;47.950;6.572;2023-04-19T00:11:24;94553.22;;;7.37;100.00
67434;BME280;54305;47.950;6.572;2023-04-19T00:13:49;94556.00;;;7.35;100.00
67434;BME280;54305;47.950;6.572;2023-04-19T00:16:15;94549.31;;;7.33;100.00
67434;BME280;54305;47.950;6.572;2023-04-19T00:18:40;94550.94;;;7.34;100.00
67434;BME280;54305;47.950;6.572;2023-04-19T00:21:06;94543.31;;;7.23;100.00
67434;BME280;54305;47.950;6.572;2023-04-19T00:23:32;94539.75;;;7.24;100.00
67434;BME280;54305;47.950;6.572;2023-04-19T00:25:57;94542.59;;;7.21;100.00
67434;BME280;54305;47.950;6.572;2023-04-19T00:28:23;94538.13;;;7.23;100.00
67434;BME280;54305;47.950;6.572;2023-04-19T00:30:49;94541.13;;;7.28;100.00
67434;BME280;54305;47.950;6.572;2023-04-19T00:33:14;94529.69;;;7.30;100.00
67434;BME280;54305;47.950;6.572;2023-04-19T00:35:39;94540.03;;;7.21;100.00
67434;BME280;54305;47.950;6.572;2023-04-19T00:38:06;94540.03;;;7.21;100.00
67434;BME280;54305;47.950;6.572;2023-04-19T00:40:31;94539.88;;;7.22;100.00
67434;BME280;54305;47.950;6.572;2023-04-19T00:42:56;94541.94;;;7.19;100.00
67434;BME280;54305;47.950;6.572;2023-04-19T00:45:22;94536.19;;;7.06;100.00
67434;BME280;54305;47.950;6.572;2023-04-19T00:47:47;94537.03;;;7.06;100.00
67434;BME280;54305;47.950;6.572;2023-04-19T00:50:12;94541.53;;;7.14;100.00
67434;BME280;54305;47.950;6.572;2023-04-19T00:52:37;94533.47;;;7.17;100.00
67434;BME280;54305;47.950;6.572;2023-04-19T00:55:03;94546.28;;;7.09;100.00
67434;BME280;54305;47.950;6.572;2023-04-19T00:57:28;94544.22;;;7.03;100.00
67434;BME280;54305;47.950;6.572;2023-04-19T00:59:54;94539.75;;;7.05;100.00
67434;BME280;54305;47.950;6.572;2023-04-19T01:02:19;94537.16;;;7.05;100.00
67434;BME280;54305;47.950;6.572;2023-04-19T01:04:45;94540.00;;;7.02;100.00
67434;BME280;54305;47.950;6.572;2023-04-19T01:07:11;94534.56;;;7.05;100.00
67434;BME280;54305;47.950;6.572;2023-04-19T01:09:41;94532.13;;;6.94;100.00
67434;BME280;54305;47.950;6.572;2023-04-19T01:12:07;94535.63;;;6.83;100.00
67434;BME280;54305;47.950;6.572;2023-04-19T01:14:35;94541.91;;;6.81;100.00
67434;BME280;54305;47.950;6.572;2023-04-19T01:17:01;94530.44;;;6.74;100.00
67434;BME280;54305;47.950;6.572;2023-04-19T01:19:26;94521.03;;;6.73;100.00
67434;BME280;54305;47.950;6.572;2023-04-19T01:21:54;94514.22;;;6.72;100.00
67434;BME280;54305;47.950;6.572;2023-04-19T01:24:20;94520.91;;;6.65;100.00
67434;BME280;54305;47.950;6.572;2023-04-19T01:26:45;94519.91;;;6.56;100.00
67434;BME280;54305;47.950;6.572;2023-04-19T01:29:11;94520.16;;;6.44;100.00
67434;BME280;54305;47.950;6.572;2023-04-19T01:31:36;94517.56;;;6.44;100.00
67434;BME280;54305;47.950;6.572;2023-04-19T01:34:01;94514.59;;;6.58;100.00
67434;BME280;54305;47.950;6.572;2023-04-19T01:36:26;94523.19;;;6.58;100.00
67434;BME280;54305;47.950;6.572;2023-04-19T01:38:52;94520.31;;;6.52;100.00
67434;BME280;54305;47.950;6.572;2023-04-19T01:41:17;94527.13;;;6.53;100.00
67434;BME280;54305;47.950;6.572;2023-04-19T01:43:44;94523.28;;;6.38;100.00
67434;BME280;54305;47.950;6.572;2023-04-19T01:46:09;94528.69;;;6.35;100.00
67434;BME280;54305;47.950;6.572;2023-04-19T01:48:35;94522.59;;;6.36;100.00
67434;BME280;54305;47.950;6.572;2023-04-19T01:51:00;94522.91;;;6.12;100.00
67434;BME280;54305;47.950;6.572;2023-04-19T01:53:25;94519.84;;;6.37;100.00
67434;BME280;54305;47.950;6.572;2023-04-19T01:55:50;94513.88;;;6.37;100.00
67434;BME280;54305;47.950;6.572;2023-04-19T01:58:16;94518.44;;;6.24;100.00
67434;BME280;54305;47.950;6.572;2023-04-19T02:00:41;94520.19;;;6.14;100.00
67434;BME280;54305;47.950;6.572;2023-04-19T02:03:06;94508.47;;;6.10;100.00
67434;BME280;54305;47.950;6.572;2023-04-19T02:05:31;94509.00;;;6.13;100.00
67434;BME280;54305;47.950;6.572;2023-04-19T02:07:57;94507.09;;;6.06;100.00
67434;BME280;54305;47.950;6.572;2023-04-19T02:10:22;94512.53;;;6.03;100.00
67434;BME280;54305;47.950;6.572;2023-04-19T02:12:47;94511.66;;;5.93;100.00
67434;BME280;54305;47.950;6.572;2023-04-19T02:15:13;94524.44;;;5.94;100.00
67434;BME280;54305;47.950;6.572;2023-04-19T02:17:38;94517.91;;;5.90;100.00
67434;BME280;54305;47.950;6.572;2023-04-19T02:20:04;94514.41;;;6.01;100.00
67434;BME280;54305;47.950;6.572;2023-04-19T02:22:30;94522.31;;;5.99;100.00
67434;BME280;54305;47.950;6.572;2023-04-19T02:24:55;94512.78;;;6.00;100.00
67434;BME280;54305;47.950;6.572;2023-04-19T02:27:20;94516.44;;;5.77;100.00
67434;BME280;54305;47.950;6.572;2023-04-19T02:29:46;94522.63;;;5.65;100.00
67434;BME280;54305;47.950;6.572;2023-04-19T02:32:11;94520.69;;;5.57;100.00
67434;BME280;54305;47.950;6.572;2023-04-19T02:34:37;94518.91;;;5.58;100.00
67434;BME280;54305;47.950;6.572;2023-04-19T02:37:02;94521.50;;;5.58;100.00
67434;BME280;54305;47.950;6.572;2023-04-19T02:39:27;94522.28;;;5.49;100.00
67434;BME280;54305;47.950;6.572;2023-04-19T02:41:53;94520.19;;;5.43;100.00
67434;BME280;54305;47.950;6.572;2023-04-19T02:44:18;94521.63;;;5.36;100.00
67434;BME280;54305;47.950;6.572;2023-04-19T02:46:50;94524.84;;;5.28;100.00
67434;BME280;54305;47.950;6.572;2023-04-19T02:49:15;94519.81;;;5.27;100.00
67434;BME280;54305;47.950;6.572;2023-04-19T02:51:40;94533.38;;;5.29;100.00
67434;BME280;54305;47.950;6.572;2023-04-19T02:54:06;94522.88;;;5.21;100.00
67434;BME280;54305;47.950;6.572;2023-04-19T02:56:31;94529.44;;;5.25;100.00
67434;BME280;54305;47.950;6.572;2023-04-19T02:58:59;94531.63;;;5.29;100.00
67434;BME280;54305;47.950;6.572;2023-04-19T03:01:27;94526.41;;;5.20;100.00
67434;BME280;54305;47.950;6.572;2023-04-19T03:03:52;94519.59;;;5.19;100.00
67434;BME280;54305;47.950;6.572;2023-04-19T03:06:17;94527.06;;;5.01;100.00
67434;BME280;54305;47.950;6.572;2023-04-19T03:08:43;94532.41;;;4.89;100.00
67434;BME280;54305;47.950;6.572;2023-04-19T03:11:09;94529.69;;;4.59;100.00
67434;BME280;54305;47.950;6.572;2023-04-19T03:13:34;94526.88;;;4.51;100.00
67434;BME280;54305;47.950;6.572;2023-04-19T03:16:00;94536.56;;;4.69;100.00
67434;BME280;54305;47.950;6.572;2023-04-19T03:18:25;94537.63;;;4.56;100.00
67434;BME280;54305;47.950;6.572;2023-04-19T03:20:51;94534.41;;;4.43;100.00
67434;BME280;54305;47.950;6.572;2023-04-19T03:23:16;94539.06;;;4.49;100.00
67434;BME280;54305;47.950;6.572;2023-04-19T03:25:41;94540.00;;;4.37;100.00
67434;BME280;54305;47.950;6.572;2023-04-19T03:28:06;94534.16;;;4.46;100.00
67434;BME280;54305;47.950;6.572;2023-04-19T03:30:31;94535.31;;;4.42;100.00
67434;BME280;54305;47.950;6.572;2023-04-19T03:32:57;94531.47;;;4.25;100.00
67434;BME280;54305;47.950;6.572;2023-04-19T03:35:24;94535.47;;;4.18;100.00
67434;BME280;54305;47.950;6.572;2023-04-19T03:37:50;94524.81;;;4.12;100.00
67434;BME280;54305;47.950;6.572;2023-04-19T03:40:15;94531.38;;;4.16;100.00
67434;BME280;54305;47.950;6.572;2023-04-19T03:42:40;94525.78;;;4.00;100.00
67434;BME280;54305;47.950;6.572;2023-04-19T03:45:06;94531.63;;;3.80;100.00
67434;BME280;54305;47.950;6.572;2023-04-19T03:47:31;94528.09;;;3.92;100.00
67434;BME280;54305;47.950;6.572;2023-04-19T03:49:57;94533.72;;;4.08;100.00
67434;BME280;54305;47.950;6.572;2023-04-19T03:52:22;94529.94;;;4.23;100.00
67434;BME280;54305;47.950;6.572;2023-04-19T03:54:49;94518.03;;;4.33;100.00
67434;BME280;54305;47.950;6.572;2023-04-19T03:57:15;94514.50;;;4.12;100.00
67434;BME280;54305;47.950;6.572;2023-04-19T03:59:41;94520.63;;;4.00;100.00
67434;BME280;54305;47.950;6.572;2023-04-19T04:02:06;94523.19;;;4.11;100.00
67434;BME280;54305;47.950;6.572;2023-04-19T04:04:32;94519.44;;;4.15;100.00
67434;BME280;54305;47.950;6.572;2023-04-19T04:06:57;94519.66;;;4.23;100.00
67434;BME280;54305;47.950;6.572;2023-04-19T04:09:22;94519.41;;;4.26;100.00
67434;BME280;54305;47.950;6.572;2023-04-19T04:11:49;94513.34;;;3.94;100.00
67434;BME280;54305;47.950;6.572;2023-04-19T04:14:14;94510.66;;;3.84;100.00
67434;BME280;54305;47.950;6.572;2023-04-19T04:16:40;94519.22;;;3.96;100.00
67434;BME280;54305;47.950;6.572;2023-04-19T04:19:05;94515.91;;;3.94;100.00
67434;BME280;54305;47.950;6.572;2023-04-19T04:21:30;94510.31;;;3.78;100.00
67434;BME280;54305;47.950;6.572;2023-04-19T04:23:56;94511.94;;;3.79;100.00
67434;BME280;54305;47.950;6.572;2023-04-19T04:26:21;94518.03;;;3.78;100.00
67434;BME280;54305;47.950;6.572;2023-04-19T04:28:49;94517.09;;;3.79;100.00
67434;BME280;54305;47.950;6.572;2023-04-19T04:31:14;94522.03;;;3.71;100.00
67434;BME280;54305;47.950;6.572;2023-04-19T04:33:42;94524.34;;;3.74;100.00
67434;BME280;54305;47.950;6.572;2023-04-19T04:36:07;94518.72;;;3.69;100.00
67434;BME280;54305;47.950;6.572;2023-04-19T04:38:35;94525.28;;;3.62;100.00
67434;BME280;54305;47.950;6.572;2023-04-19T04:41:01;94523.44;;;3.75;100.00
67434;BME280;54305;47.950;6.572;2023-04-19T04:43:27;94530.91;;;3.78;100.00
67434;BME280;54305;47.950;6.572;2023-04-19T04:45:53;94533.97;;;3.72;100.00
67434;BME280;54305;47.950;6.572;2023-04-19T04:48:19;94524.59;;;3.71;100.00
67434;BME280;54305;47.950;6.572;2023-04-19T04:50:45;94524.81;;;3.79;100.00
67434;BME280;54305;47.950;6.572;2023-04-19T04:53:10;94523.19;;;3.89;100.00
67434;BME280;54305;47.950;6.572;2023-04-19T04:55:36;94524.34;;;3.74;100.00
67434;BME280;54305;47.950;6.572;2023-04-19T04:58:02;94521.44;;;3.78;100.00
67434;BME280;54305;47.950;6.572;2023-04-19T05:00:29;94521.06;;;3.72;100.00
67434;BME280;54305;47.950;6.572;2023-04-19T05:02:54;94521.06;;;3.83;100.00
67434;BME280;54305;47.950;6.572;2023-04-19T05:05:20;94526.81;;;3.86;100.00
67434;BME280;54305;47.950;6.572;2023-04-19T05:07:45;94520.00;;;3.96;100.00
67434;BME280;54305;47.950;6.572;2023-04-19T05:10:10;94522.03;;;4.04;100.00
67434;BME280;54305;47.950;6.572;2023-04-19T05:12:36;94528.44;;;4.20;100.00
67434;BME280;54305;47.950;6.572;2023-04-19T05:15:01;94521.41;;;4.22;100.00
67434;BME280;54305;47.950;6.572;2023-04-19T05:17:27;94531.59;;;4.35;100.00
67434;BME280;54305;47.950;6.572;2023-04-19T05:19:52;94529.00;;;4.46;100.00
67434;BME280;54305;47.950;6.572;2023-04-19T05:22:17;94525.25;;;4.50;100.00
67434;BME280;54305;47.950;6.572;2023-04-19T05:24:42;94530.63;;;4.58;100.00
67434;BME280;54305;47.950;6.572;2023-04-19T05:27:08;94536.56;;;4.69;100.00
67434;BME280;54305;47.950;6.572;2023-04-19T05:29:33;94535.03;;;4.78;100.00
67434;BME280;54305;47.950;6.572;2023-04-19T05:31:59;94528.13;;;4.99;100.00
67434;BME280;54305;47.950;6.572;2023-04-19T05:34:24;94529.03;;;5.09;100.00
67434;BME280;54305;47.950;6.572;2023-04-19T05:36:49;94529.34;;;5.15;100.00
67434;BME280;54305;47.950;6.572;2023-04-19T05:39:15;94530.81;;;5.29;100.00
67434;BME280;54305;47.950;6.572;2023-04-19T05:41:41;94533.09;;;5.43;100.00
67434;BME280;54305;47.950;6.572;2023-04-19T05:44:06;94537.00;;;5.58;100.00
67434;BME280;54305;47.950;6.572;2023-04-19T05:46:31;94533.16;;;5.73;100.00
67434;BME280;54305;47.950;6.572;2023-04-19T05:48:56;94530.00;;;5.90;100.00
67434;BME280;54305;47.950;6.572;2023-04-19T05:51:22;94529.84;;;6.12;100.00
67434;BME280;54305;47.950;6.572;2023-04-19T05:53:47;94524.06;;;6.29;100.00
67434;BME280;54305;47.950;6.572;2023-04-19T05:56:12;94525.50;;;6.52;100.00
67434;BME280;54305;47.950;6.572;2023-04-19T05:58:38;94525.00;;;6.77;100.00
67434;BME280;54305;47.950;6.572;2023-04-19T06:01:03;94526.38;;;6.90;100.00
67434;BME280;54305;47.950;6.572;2023-04-19T06:03:28;94528.97;;;7.00;100.00
67434;BME280;54305;47.950;6.572;2023-04-19T06:05:54;94519.03;;;7.24;100.00
67434;BME280;54305;47.950;6.572;2023-04-19T06:08:19;94513.03;;;7.52;100.00
67434;BME280;54305;47.950;6.572;2023-04-19T06:10:45;94527.72;;;7.61;100.00
67434;BME280;54305;47.950;6.572;2023-04-19T06:13:12;94517.03;;;7.83;100.00
67434;BME280;54305;47.950;6.572;2023-04-19T06:15:37;94519.75;;;7.91;100.00
67434;BME280;54305;47.950;6.572;2023-04-19T06:18:04;94531.97;;;8.08;100.00
67434;BME280;54305;47.950;6.572;2023-04-19T06:20:34;94534.31;;;8.01;100.00
67434;BME280;54305;47.950;6.572;2023-04-19T06:22:59;94529.19;;;8.19;100.00
67434;BME280;54305;47.950;6.572;2023-04-19T06:25:24;94527.84;;;8.34;100.00
67434;BME280;54305;47.950;6.572;2023-04-19T06:27:49;94526.84;;;8.62;100.00
67434;BME280;54305;47.950;6.572;2023-04-19T06:30:15;94520.34;;;8.58;100.00
67434;BME280;54305;47.950;6.572;2023-04-19T06:32:40;94529.28;;;8.73;100.00
67434;BME280;54305;47.950;6.572;2023-04-19T06:35:06;94528.09;;;8.85;100.00
67434;BME280;54305;47.950;6.572;2023-04-19T06:37:32;94522.56;;;8.97;100.00
67434;BME280;54305;47.950;6.572;2023-04-19T06:39:57;94525.53;;;9.37;100.00
67434;BME280;54305;47.950;6.572;2023-04-19T06:42:23;94517.75;;;9.55;100.00
67434;BME280;54305;47.950;6.572;2023-04-19T06:44:49;94525.19;;;9.75;100.00
67434;BME280;54305;47.950;6.572;2023-04-19T06:47:15;94527.25;;;9.89;100.00
67434;BME280;54305;47.950;6.572;2023-04-19T06:49:41;94530.66;;;10.07;100.00
67434;BME280;54305;47.950;6.572;2023-04-19T06:52:06;94535.03;;;10.32;100.00
67434;BME280;54305;47.950;6.572;2023-04-19T06:54:31;94523.91;;;10.22;100.00
67434;BME280;54305;47.950;6.572;2023-04-19T06:56:59;94524.88;;;10.47;100.00
67434;BME280;54305;47.950;6.572;2023-04-19T06:59:24;94530.44;;;10.60;100.00
67434;BME280;54305;47.950;6.572;2023-04-19T07:01:52;94527.09;;;10.75;100.00
67434;BME280;54305;47.950;6.572;2023-04-19T07:04:17;94521.16;;;11.07;100.00
67434;BME280;54305;47.950;6.572;2023-04-19T07:06:43;94529.69;;;11.41;100.00
67434;BME280;54305;47.950;6.572;2023-04-19T07:09:08;94524.47;;;11.41;99.56
67434;BME280;54305;47.950;6.572;2023-04-19T07:11:33;94523.69;;;11.56;96.86
67434;BME280;54305;47.950;6.572;2023-04-19T07:13:58;94533.66;;;11.69;95.62
67434;BME280;54305;47.950;6.572;2023-04-19T07:16:25;94532.19;;;11.74;96.98
67434;BME280;54305;47.950;6.572;2023-04-19T07:18:50;94520.25;;;12.12;95.84
67434;BME280;54305;47.950;6.572;2023-04-19T07:21:16;94523.50;;;12.30;91.21
67434;BME280;54305;47.950;6.572;2023-04-19T07:23:41;94515.28;;;12.41;89.34
67434;BME280;54305;47.950;6.572;2023-04-19T07:26:06;94517.88;;;12.49;87.65
67434;BME280;54305;47.950;6.572;2023-04-19T07:28:32;94521.94;;;12.51;86.96
67434;BME280;54305;47.950;6.572;2023-04-19T07:30:57;94517.53;;;12.52;86.26
67434;BME280;54305;47.950;6.572;2023-04-19T07:33:23;94518.59;;;12.73;85.03
67434;BME280;54305;47.950;6.572;2023-04-19T07:35:51;94528.00;;;12.98;82.49
67434;BME280;54305;47.950;6.572;2023-04-19T07:38:17;94517.63;;;13.13;84.47
67434;BME280;54305;47.950;6.572;2023-04-19T07:40:43;94519.13;;;13.38;83.50
67434;BME280;54305;47.950;6.572;2023-04-19T07:43:08;94516.84;;;13.35;79.29
67434;BME280;54305;47.950;6.572;2023-04-19T07:45:34;94523.69;;;13.36;80.10
67434;BME280;54305;47.950;6.572;2023-04-19T07:47:59;94515.34;;;13.40;80.08
67434;BME280;54305;47.950;6.572;2023-04-19T07:50:24;94515.69;;;13.60;77.63
67434;BME280;54305;47.950;6.572;2023-04-19T07:52:52;94519.00;;;13.76;76.91
67434;BME280;54305;47.950;6.572;2023-04-19T07:55:18;94518.75;;;13.86;75.79
67434;BME280;54305;47.950;6.572;2023-04-19T07:57:43;94518.56;;;14.10;74.42
67434;BME280;54305;47.950;6.572;2023-04-19T08:00:13;94516.94;;;14.09;72.43
67434;BME280;54305;47.950;6.572;2023-04-19T08:02:41;94504.19;;;14.06;71.96
67434;BME280;54305;47.950;6.572;2023-04-19T08:05:06;94510.94;;;14.23;71.89
67434;BME280;54305;47.950;6.572;2023-04-19T08:07:33;94518.69;;;14.31;70.50
67434;BME280;54305;47.950;6.572;2023-04-19T08:09:58;94513.41;;;14.68;67.70
67434;BME280;54305;47.950;6.572;2023-04-19T08:12:23;94510.50;;;14.63;66.90
67434;BME280;54305;47.950;6.572;2023-04-19T08:14:48;94515.19;;;14.82;67.46
67434;BME280;54305;47.950;6.572;2023-04-19T08:17:14;94516.63;;;14.99;65.42
67434;BME280;54305;47.950;6.572;2023-04-19T08:19:40;94508.75;;;14.99;63.61
67434;BME280;54305;47.950;6.572;2023-04-19T08:22:05;94508.13;;;14.97;64.75
67434;BME280;54305;47.950;6.572;2023-04-19T08:24:38;94501.81;;;15.27;64.28
67434;BME280;54305;47.950;6.572;2023-04-19T08:27:03;94513.00;;;15.71;65.06
67434;BME280;54305;47.950;6.572;2023-04-19T08:29:28;94506.63;;;15.80;60.76
67434;BME280;54305;47.950;6.572;2023-04-19T08:31:54;94511.50;;;15.83;61.80
67434;BME280;54305;47.950;6.572;2023-04-19T08:34:19;94515.97;;;16.31;60.30
67434;BME280;54305;47.950;6.572;2023-04-19T08:36:45;94515.03;;;16.17;60.14
67434;BME280;54305;47.950;6.572;2023-04-19T08:39:10;94512.50;;;16.58;58.16
67434;BME280;54305;47.950;6.572;2023-04-19T08:41:36;94499.03;;;16.40;57.93
67434;BME280;54305;47.950;6.572;2023-04-19T08:44:02;94510.00;;;15.74;58.44
67434;BME280;54305;47.950;6.572;2023-04-19T08:46:29;94500.53;;;15.73;60.27
67434;BME280;54305;47.950;6.572;2023-04-19T08:48:55;94492.50;;;16.02;60.46
67434;BME280;54305;47.950;6.572;2023-04-19T08:51:21;94495.97;;;16.09;58.16
67434;BME280;54305;47.950;6.572;2023-04-19T08:53:47;94500.94;;;16.80;56.54
67434;BME280;54305;47.950;6.572;2023-04-19T08:56:14;94494.19;;;16.71;55.98
67434;BME280;54305;47.950;6.572;2023-04-19T08:58:39;94501.75;;;16.87;55.97
67434;BME280;54305;47.950;6.572;2023-04-19T09:01:05;94496.75;;;16.58;56.71
67434;BME280;54305;47.950;6.572;2023-04-19T09:03:31;94494.06;;;16.85;56.88
67434;BME280;54305;47.950;6.572;2023-04-19T09:05:56;94480.94;;;17.39;54.55
67434;BME280;54305;47.950;6.572;2023-04-19T09:08:23;94487.50;;;17.69;54.56
67434;BME280;54305;47.950;6.572;2023-04-19T09:10:59;94485.03;;;17.54;52.88
67434;BME280;54305;47.950;6.572;2023-04-19T09:13:25;94485.31;;;17.19;53.16
67434;BME280;54305;47.950;6.572;2023-04-19T09:15:50;94484.63;;;17.44;54.76
67434;BME280;54305;47.950;6.572;2023-04-19T09:18:17;94490.06;;;16.96;52.12
67434;BME280;54305;47.950;6.572;2023-04-19T09:20:43;94484.06;;;17.15;52.23
67434;BME280;54305;47.950;6.572;2023-04-19T09:23:10;94483.81;;;17.50;51.15
67434;BME280;54305;47.950;6.572;2023-04-19T09:25:37;94479.59;;;17.09;51.14
67434;BME280;54305;47.950;6.572;2023-04-19T09:28:09;94476.13;;;17.75;51.82
67434;BME280;54305;47.950;6.572;2023-04-19T09:30:35;94472.94;;;17.92;49.22
67434;BME280;54305;47.950;6.572;2023-04-19T09:33:00;94473.72;;;18.19;51.71
67434;BME280;54305;47.950;6.572;2023-04-19T09:35:46;94476.56;;;17.98;50.28
67434;BME280;54305;47.950;6.572;2023-04-19T09:38:13;94467.25;;;18.02;48.88
67434;BME280;54305;47.950;6.572;2023-04-19T09:40:39;94462.75;;;18.48;50.66
67434;BME280;54305;47.950;6.572;2023-04-19T09:43:04;94456.72;;;18.02;48.90
67434;BME280;54305;47.950;6.572;2023-04-19T09:45:43;94464.41;;;18.23;49.75
67434;BME280;54305;47.950;6.572;2023-04-19T09:48:09;94458.31;;;18.29;48.86
67434;BME280;54305;47.950;6.572;2023-04-19T09:50:35;94461.13;;;17.56;49.55
67434;BME280;54305;47.950;6.572;2023-04-19T09:53:01;94454.97;;;17.36;50.94
67434;BME280;54305;47.950;6.572;2023-04-19T09:55:26;94465.97;;;17.46;52.18
67434;BME280;54305;47.950;6.572;2023-04-19T09:57:52;94458.91;;;17.72;52.52
67434;BME280;54305;47.950;6.572;2023-04-19T10:00:17;94458.34;;;18.16;48.48
67434;BME280;54305;47.950;6.572;2023-04-19T10:02:45;94451.69;;;18.90;48.49
67434;BME280;54305;47.950;6.572;2023-04-19T10:05:18;94452.75;;;18.82;48.17
67434;BME280;54305;47.950;6.572;2023-04-19T10:07:43;94453.47;;;18.32;48.17
67434;BME280;54305;47.950;6.572;2023-04-19T10:10:09;94451.03;;;17.92;49.36
67434;BME280;54305;47.950;6.572;2023-04-19T10:12:34;94453.88;;;18.10;48.20
67434;BME280;54305;47.950;6.572;2023-04-19T10:15:00;94448.97;;;18.46;49.86
67434;BME280;54305;47.950;6.572;2023-04-19T10:17:25;94453.06;;;18.16;49.72
67434;BME280;54305;47.950;6.572;2023-04-19T10:19:51;94445.94;;;18.23;50.48
67434;BME280;54305;47.950;6.572;2023-04-19T10:22:19;94452.22;;;17.76;49.67
67434;BME280;54305;47.950;6.572;2023-04-19T10:27:33;94445.28;;;16.83;47.96
67434;BME280;54305;47.950;6.572;2023-04-19T10:29:59;94449.59;;;15.32;52.28
67434;BME280;54305;47.950;6.572;2023-04-19T10:32:29;94451.75;;;15.64;54.39
67434;BME280;54305;47.950;6.572;2023-04-19T10:35:00;94451.13;;;15.83;52.91
67434;BME280;54305;47.950;6.572;2023-04-19T10:37:25;94449.44;;;16.03;55.39
67434;BME280;54305;47.950;6.572;2023-04-19T10:39:50;94445.50;;;16.20;53.99
67434;BME280;54305;47.950;6.572;2023-04-19T10:42:16;94439.34;;;16.34;53.57
67434;BME280;54305;47.950;6.572;2023-04-19T10:44:41;94443.69;;;16.48;54.45
67434;BME280;54305;47.950;6.572;2023-04-19T10:47:06;94451.47;;;16.62;55.24
67434;BME280;54305;47.950;6.572;2023-04-19T10:49:43;94446.97;;;16.56;51.39
67434;BME280;54305;47.950;6.572;2023-04-19T10:52:21;94437.44;;;15.94;51.24
67434;BME280;54305;47.950;6.572;2023-04-19T10:54:54;94441.56;;;16.03;51.90
67434;BME280;54305;47.950;6.572;2023-04-19T10:57:20;94429.19;;;15.97;52.36
67434;BME280;54305;47.950;6.572;2023-04-19T10:59:45;94434.22;;;15.71;52.44
67434;BME280;54305;47.950;6.572;2023-04-19T11:02:31;94431.63;;;15.50;52.03
67434;BME280;54305;47.950;6.572;2023-04-19T11:04:58;94431.91;;;15.82;56.25
67434;BME280;54305;47.950;6.572;2023-04-19T11:07:24;94422.50;;;16.22;55.25
67434;BME280;54305;47.950;6.572;2023-04-19T11:09:49;94421.88;;;16.54;55.78
67434;BME280;54305;47.950;6.572;2023-04-19T11:12:18;94422.78;;;16.67;53.27
67434;BME280;54305;47.950;6.572;2023-04-19T11:14:45;94409.41;;;16.62;52.54
67434;BME280;54305;47.950;6.572;2023-04-19T11:17:17;94411.78;;;16.51;53.85
67434;BME280;54305;47.950;6.572;2023-04-19T11:19:44;94410.53;;;16.47;55.03
67434;BME280;54305;47.950;6.572;2023-04-19T11:22:09;94406.53;;;15.96;53.50
67434;BME280;54305;47.950;6.572;2023-04-19T11:24:35;94413.16;;;15.85;55.34
67434;BME280;54305;47.950;6.572;2023-04-19T11:27:00;94401.44;;;15.88;56.07
67434;BME280;54305;47.950;6.572;2023-04-19T11:29:31;94402.00;;;15.83;56.65
67434;BME280;54305;47.950;6.572;2023-04-19T11:31:58;94400.50;;;15.47;53.80
67434;BME280;54305;47.950;6.572;2023-04-19T11:34:23;94405.47;;;15.63;56.62
67434;BME280;54305;47.950;6.572;2023-04-19T11:36:50;94392.38;;;15.42;54.88
67434;BME280;54305;47.950;6.572;2023-04-19T11:39:15;94392.81;;;15.45;55.48
67434;BME280;54305;47.950;6.572;2023-04-19T11:41:41;94386.72;;;15.66;58.48
67434;BME280;54305;47.950;6.572;2023-04-19T11:44:13;94385.47;;;15.62;56.42
67434;BME280;54305;47.950;6.572;2023-04-19T11:46:38;94388.38;;;15.25;53.68
67434;BME280;54305;47.950;6.572;2023-04-19T11:49:04;94387.53;;;15.39;55.98
67434;BME280;54305;47.950;6.572;2023-04-19T11:51:29;94375.22;;;15.67;56.19
67434;BME280;54305;47.950;6.572;2023-04-19T11:53:55;94376.47;;;15.71;56.32
67434;BME280;54305;47.950;6.572;2023-04-19T11:56:20;94376.66;;;15.69;57.65
67434;BME280;54305;47.950;6.572;2023-04-19T11:58:46;94379.44;;;15.89;57.38
67434;BME280;54305;47.950;6.572;2023-04-19T12:03:48;94369.47;;;15.78;56.17
67434;BME280;54305;47.950;6.572;2023-04-19T12:06:15;94373.53;;;15.87;57.23
67434;BME280;54305;47.950;6.572;2023-04-19T12:11:09;94369.81;;;16.02;56.67
67434;BME280;54305;47.950;6.572;2023-04-19T12:13:34;94371.47;;;16.10;56.99
67434;BME280;54305;47.950;6.572;2023-04-19T12:16:00;94371.59;;;16.29;56.31
67434;BME280;54305;47.950;6.572;2023-04-19T12:18:26;94366.84;;;16.12;55.55
67434;BME280;54305;47.950;6.572;2023-04-19T12:20:51;94370.84;;;15.74;55.23
67434;BME280;54305;47.950;6.572;2023-04-19T12:23:17;94372.84;;;15.99;57.60
67434;BME280;54305;47.950;6.572;2023-04-19T12:25:44;94372.56;;;15.88;57.18
67434;BME280;54305;47.950;6.572;2023-04-19T12:28:10;94373.72;;;15.58;57.15
67434;BME280;54305;47.950;6.572;2023-04-19T12:30:35;94367.03;;;15.55;55.99
67434;BME280;54305;47.950;6.572;2023-04-19T12:33:01;94373.28;;;15.75;58.60
67434;BME280;54305;47.950;6.572;2023-04-19T12:35:26;94366.63;;;15.52;56.38
67434;BME280;54305;47.950;6.572;2023-04-19T12:37:56;94371.69;;;15.32;58.52
67434;BME280;54305;47.950;6.572;2023-04-19T12:40:22;94369.78;;;15.41;58.75
67434;BME280;54305;47.950;6.572;2023-04-19T12:42:47;94378.91;;;15.30;59.96
67434;BME280;54305;47.950;6.572;2023-04-19T12:45:12;94363.00;;;15.32;58.63
67434;BME280;54305;47.950;6.572;2023-04-19T12:47:38;94368.47;;;15.58;58.76
67434;BME280;54305;47.950;6.572;2023-04-19T12:50:03;94367.38;;;15.46;58.90
67434;BME280;54305;47.950;6.572;2023-04-19T12:52:29;94362.19;;;15.52;57.12
67434;BME280;54305;47.950;6.572;2023-04-19T12:54:54;94364.22;;;15.57;58.56
67434;BME280;54305;47.950;6.572;2023-04-19T12:57:20;94363.69;;;15.40;57.24
67434;BME280;54305;47.950;6.572;2023-04-19T12:59:45;94352.84;;;15.43;56.61
67434;BME280;54305;47.950;6.572;2023-04-19T13:02:10;94352.13;;;15.14;55.74